Time;durP1;ratioP1;P1;durP2;ratioP2;P2;SDS_P1;SDS_P2;PMS_P1;PMS_P2;Temp;Humidity;BMP_temperature;BMP_pressure;BME280_temperature;BME280_humidity;BME280_pressure;Samples;Min_cycle;Max_cycle;Signal;HPM_P1;HPM_P2
2023/02/16 00:08:11;;;;;;;;;;;;;;;;;;;;;
2023/02/16 00:29:12;;;;;;;;;;;;;;;;;;;;;
2023/02/16 00:46:27;;;;;;;93.00;43.00;;;;;;;-2.52;82.83;101065.71;132513;1311;22483;-79
2023/02/16 01:02:59;;;;;;;;;;;;;;;;;;;;;
2023/02/16 01:20:16;;;;;;;;;;;;;;;;;;;;;
2023/02/16 01:29:20;;;;;;;85.10;38.30;;;;;;;-2.83;82.68;101055.30;132432;1318;22182;-79
2023/02/16 01:33:29;;;;;;;;;;;;;;;;;;;;;
2023/02/16 01:41:17;;;;;;;;;;;;;;;;;;;;;
2023/02/16 02:05:44;;;;;;;91.80;42.60;;;;;;;-3.05;82.41;101014.94;132593;1311;22399;-79
2023/02/16 02:45:09;;;;;;;;;;;;;;;;;;;;;
2023/02/16 03:02:16;;;;;;;96.10;42.30;;;;;;;-3.32;82.90;100994.65;132517;1310;23005;-79
2023/02/16 03:32:47;;;;;;;;;;;;;;;;;;;;;
2023/02/16 03:37:01;;;;;;;;;;;;;;;;;;;;;
2023/02/16 03:40:41;;;;;;;100.90;43.90;;;;;;;-3.43;83.15;100975.02;132521;1311;22480;-80
2023/02/16 03:45:27;;;;;;;102.30;46.70;;;;;;;-3.45;83.33;100975.58;132522;1318;22942;-80
2023/02/16 04:19:34;;;;;;;;;;;;;;;;;;;;;
2023/02/16 04:23:44;;;;;;;;;;;;;;;;;;;;;
2023/02/16 04:41:03;;;;;;;;;;;;;;;;;;;;;
2023/02/16 04:45:26;;;;;;;108.60;46.20;;;;;;;-3.64;83.13;100969.52;132457;1311;22585;-80
2023/02/16 05:02:29;;;;;;;101.90;42.30;;;;;;;-3.59;83.22;100975.45;132511;1311;22154;-79
2023/02/16 05:14:52;;;;;;;94.00;42.60;;;;;;;-3.65;82.95;100966.61;132510;1312;22211;-80
2023/02/16 05:23:12;;;;;;;93.50;42.20;;;;;;;-3.75;83.13;100949.37;132387;1318;22246;-80
2023/02/16 05:36:21;;;;;;;;;;;;;;;;;;;;;
2023/02/16 05:40:21;;;;;;;;;;;;;;;;;;;;;
2023/02/16 05:48:51;;;;;;;;;;;;;;;;;;;;;
2023/02/16 05:57:38;;;;;;;;;;;;;;;;;;;;;
2023/02/16 06:06:08;;;;;;;;;;;;;;;;;;;;;
2023/02/16 06:09:59;;;;;;;;;;;;;;;;;;;;;
2023/02/16 06:14:01;;;;;;;90.70;43.60;;;;;;;-3.85;83.68;100991.19;132459;1312;22735;-79
2023/02/16 06:18:17;;;;;;;;;;;;;;;;;;;;;
2023/02/16 06:26:55;;;;;;;;;;;;;;;;;;;;;
2023/02/16 06:30:58;;;;;;;;;;;;;;;;;;;;;
2023/02/16 06:34:59;;;;;;;;;;;;;;;;;;;;;
2023/02/16 06:43:43;;;;;;;105.20;49.60;;;;;;;-2.40;84.75;100988.13;132567;1318;22172;-78
2023/02/16 06:55:56;;;;;;;;;;;;;;;;;;;;;
2023/02/16 07:03:33;;;;;;;;;;;;;;;;;;;;;
2023/02/16 07:07:58;;;;;;;;;;;;;;;;;;;;;
2023/02/16 07:11:16;;;;;;;107.40;50.10;;;;;;;-0.74;83.58;100982.33;132501;1310;23016;-80
2023/02/16 07:15:47;;;;;;;101.20;48.90;;;;;;;-0.57;83.33;100983.10;132472;1313;22249;-86
2023/02/16 07:19:37;;;;;;;;;;;;;;;;;;;;;
2023/02/16 07:40:32;;;;;;;;;;;;;;;;;;;;;
2023/02/16 07:49:30;;;;;;;95.30;45.50;;;;;;;0.82;82.31;100979.95;132570;1311;22188;-84
2023/02/16 07:53:37;;;;;;;96.60;46.30;;;;;;;0.99;82.35;100980.79;132252;1312;23158;-83
2023/02/16 07:57:13;;;;;;;;;;;;;;;;;;;;;
2023/02/16 08:00:55;;;;;;;110.70;53.40;;;;;;;1.45;82.22;100979.25;132569;1311;22976;-83
2023/02/16 08:04:34;;;;;;;;;;;;;;;;;;;;;
2023/02/16 08:08:32;;;;;;;;;;;;;;;;;;;;;
2023/02/16 08:12:18;;;;;;;187.30;87.50;;;;;;;2.13;81.58;100972.70;132377;1311;22358;-84
2023/02/16 08:16:43;;;;;;;191.20;91.70;;;;;;;2.42;81.70;100972.83;132501;1310;22552;-84
2023/02/16 08:20:08;;;;;;;116.30;55.60;;;;;;;2.79;81.55;100971.41;132406;1312;22375;-83
2023/02/16 08:24:04;;;;;;;;;;;;;;;;;;;;;
2023/02/16 08:32:40;;;;;;;;;;;;;;;;;;;;;
2023/02/16 08:36:13;;;;;;;81.00;42.80;;;;;;;3.81;78.92;100948.00;132382;1311;23091;-86
2023/02/16 08:40:06;;;;;;;91.40;43.90;;;;;;;3.85;79.33;100946.86;132492;1311;22245;-84
2023/02/16 08:48:25;;;;;;;84.90;44.00;;;;;;;4.47;79.26;100942.08;132487;1311;22239;-83
2023/02/16 08:52:34;;;;;;;87.60;45.10;;;;;;;4.72;78.45;100942.77;132428;1312;22165;-84
2023/02/16 08:56:04;;;;;;;84.10;45.70;;;;;;;4.97;78.06;100942.11;132690;1311;23023;-82
2023/02/16 09:07:40;;;;;;;88.20;44.90;;;;;;;5.42;77.09;100948.22;132310;1315;22437;-83
2023/02/16 09:11:13;;;;;;;86.10;46.50;;;;;;;5.74;77.23;100954.63;132247;1315;22511;-84
2023/02/16 09:15:08;;;;;;;91.90;47.60;;;;;;;6.12;76.92;100953.95;131981;1317;22402;-84
2023/02/16 09:19:06;;;;;;;84.50;47.20;;;;;;;6.54;76.68;100952.02;131711;1321;22302;-82
2023/02/16 09:23:04;;;;;;;81.40;43.70;;;;;;;6.93;75.81;100951.95;131612;1320;22596;-84
2023/02/16 09:36:57;;;;;;;73.80;41.20;;;;;;;7.58;74.20;100949.33;129944;1295;558034;-74
2023/02/16 09:39:57;;;;;;;75.60;41.60;;;;;;;7.73;73.25;100939.79;129761;1294;22563;-74
2023/02/16 09:43:32;;;;;;;78.40;43.40;;;;;;;7.77;72.98;100938.61;129940;1292;22583;-74
2023/02/16 09:46:33;;;;;;;69.70;39.20;;;;;;;7.90;72.53;100939.13;129600;1295;22572;-75
2023/02/16 09:49:39;;;;;;;67.40;38.30;;;;;;;8.02;72.31;100933.14;129870;1301;123214;-74
2023/02/16 09:53:02;;;;;;;63.30;36.50;;;;;;;8.08;71.46;100926.61;130009;1298;23202;-74
2023/02/16 09:56:16;;;;;;;65.20;35.50;;;;;;;8.11;70.99;100923.39;130037;1298;22552;-73
2023/02/16 09:59:37;;;;;;;64.70;34.90;;;;;;;8.17;70.58;100921.31;129887;1295;22573;-77
2023/02/16 10:02:41;;;;;;;62.90;36.30;;;;;;;8.12;70.37;100920.29;129767;1298;23048;-74
2023/02/16 10:05:51;;;;;;;60.00;34.90;;;;;;;8.12;69.63;100916.80;129881;1293;22634;-76
2023/02/16 10:09:01;;;;;;;61.60;37.70;;;;;;;8.11;69.95;100918.60;130008;1295;22642;-74
2023/02/16 10:12:08;;;;;;;60.40;35.10;;;;;;;8.21;69.66;100918.33;130039;1298;25314;-73
2023/02/16 10:15:30;;;;;;;65.60;36.40;;;;;;;8.38;69.84;100917.86;129962;1291;25320;-78
2023/02/16 10:18:39;;;;;;;65.40;35.90;;;;;;;8.55;69.56;100915.40;130125;1298;25507;-77
2023/02/16 10:21:46;;;;;;;65.20;37.50;;;;;;;8.55;69.01;100916.83;130336;1298;22561;-76
2023/02/16 10:25:11;;;;;;;70.90;38.30;;;;;;;8.62;69.03;100916.23;129868;1297;27557;-76
2023/02/16 10:28:12;;;;;;;67.80;36.60;;;;;;;8.74;68.75;100924.29;129937;1298;25380;-75
2023/02/16 10:31:40;;;;;;;64.70;35.70;;;;;;;8.79;67.92;100925.42;130035;1298;22573;-76
2023/02/16 10:34:44;;;;;;;56.20;32.70;;;;;;;8.82;68.45;100926.40;130040;1298;22773;-77
2023/02/16 10:38:12;;;;;;;45.30;27.40;;;;;;;9.02;68.09;100920.45;130103;1295;25413;-73
2023/02/16 10:41:31;;;;;;;50.70;30.20;;;;;;;9.08;67.63;100922.71;129922;1298;25403;-75
2023/02/16 10:44:39;;;;;;;54.60;31.10;;;;;;;9.16;67.00;100922.64;130023;1298;22576;-73
2023/02/16 10:47:44;;;;;;;48.30;28.80;;;;;;;9.19;67.10;100921.66;129828;1291;22565;-73
2023/02/16 10:51:00;;;;;;;44.50;27.20;;;;;;;9.25;66.43;100916.21;129982;1299;22553;-74
2023/02/16 10:54:05;;;;;;;47.30;28.30;;;;;;;9.21;66.06;100916.38;129918;1298;22667;-75
2023/02/16 10:57:31;;;;;;;48.40;27.90;;;;;;;9.22;65.65;100911.05;130000;1298;22562;-75
2023/02/16 11:00:45;;;;;;;47.60;27.60;;;;;;;9.25;65.21;100905.09;130034;1298;22604;-75
2023/02/16 11:03:51;;;;;;;44.20;26.40;;;;;;;9.13;64.72;100905.30;129933;1298;23397;-76
2023/02/16 11:07:08;;;;;;;46.20;26.20;;;;;;;9.09;65.27;100898.08;130024;1294;22572;-74
2023/02/16 11:10:21;;;;;;;43.10;25.10;;;;;;;9.06;64.44;100897.13;129757;1301;22557;-73
2023/02/16 11:13:36;;;;;;;46.30;26.00;;;;;;;8.95;63.82;100897.86;130022;1291;22570;-74
2023/02/16 11:16:37;;;;;;;48.20;24.50;;;;;;;8.92;63.78;100898.87;129910;1298;22640;-74
2023/02/16 11:20:04;;;;;;;40.90;22.90;;;;;;;8.83;63.17;100891.77;129889;1300;22569;-74
2023/02/16 11:23:12;;;;;;;44.10;24.70;;;;;;;8.73;63.19;100891.63;129917;1291;23236;-74
2023/02/16 11:26:13;;;;;;;43.70;25.70;;;;;;;8.78;63.47;100887.80;129725;1299;25519;-74
2023/02/16 11:29:19;;;;;;;66.50;36.60;;;;;;;8.90;63.79;100890.56;129793;1298;22738;-77
2023/02/16 11:32:21;;;;;;;41.30;24.90;;;;;;;8.97;63.00;100890.98;129867;1298;25434;-74
2023/02/16 11:35:22;;;;;;;47.00;26.40;;;;;;;8.94;62.85;100891.83;129909;1298;23154;-74
2023/02/16 11:38:33;;;;;;;45.10;25.90;;;;;;;8.94;62.69;100887.05;129948;1298;22562;-75
2023/02/16 11:41:34;;;;;;;60.60;33.80;;;;;;;8.93;62.95;100882.68;130035;1298;22608;-74
2023/02/16 11:44:47;;;;;;;70.10;36.60;;;;;;;9.01;63.13;100881.65;130090;1292;22677;-78
2023/02/16 11:47:54;;;;;;;42.60;24.30;;;;;;;9.18;63.11;100883.12;129785;1292;24391;-75
2023/02/16 11:51:01;;;;;;;44.10;25.40;;;;;;;9.28;62.49;100884.55;129839;1298;22573;-75
2023/02/16 11:54:06;;;;;;;53.20;28.30;;;;;;;9.31;62.26;100883.88;129940;1292;24253;-73
2023/02/16 11:57:13;;;;;;;48.20;26.10;;;;;;;9.39;62.07;100884.93;129938;1298;22712;-73
2023/02/16 12:00:20;;;;;;;64.60;34.80;;;;;;;9.44;62.27;100883.05;129872;1298;23008;-77
2023/02/16 12:03:51;;;;;;;85.10;46.40;;;;;;;9.46;62.08;100882.86;129917;1294;26963;-74
2023/02/16 12:07:21;;;;;;;42.80;25.60;;;;;;;9.43;61.81;100882.09;129909;1300;25415;-73
2023/02/16 12:10:25;;;;;;;58.10;31.40;;;;;;;9.38;61.91;100883.73;129906;1298;22609;-73
2023/02/16 12:13:44;;;;;;;56.80;33.40;;;;;;;9.39;62.17;100878.94;129806;1298;22811;-74
2023/02/16 12:17:13;;;;;;;63.40;36.50;;;;;;;9.33;61.43;100862.50;129930;1298;22591;-75
2023/02/16 12:20:31;;;;;;;46.00;25.20;;;;;;;9.17;61.44;100861.25;129819;1291;22846;-77
2023/02/16 12:24:19;;;;;;;40.90;24.50;;;;;;;9.04;61.58;100854.05;129854;1298;25326;-74
2023/02/16 12:27:30;;;;;;;37.90;23.20;;;;;;;9.05;61.73;100851.88;128930;1303;24274;-78
2023/02/16 12:30:36;;;;;;;44.80;25.40;;;;;;;9.04;61.74;100850.76;128804;1307;24324;-73
2023/02/16 12:33:48;;;;;;;45.70;26.60;;;;;;;9.04;62.28;100849.98;129921;1298;25464;-75
2023/02/16 12:36:53;;;;;;;58.50;31.10;;;;;;;9.04;61.89;100852.63;129930;1294;22577;-74
2023/02/16 12:40:38;;;;;;;63.70;35.80;;;;;;;9.04;61.98;100851.02;129990;1299;23908;-74
2023/02/16 12:43:53;;;;;;;44.30;24.40;;;;;;;9.12;62.01;100853.49;129924;1298;22574;-75
2023/02/16 12:47:05;;;;;;;41.90;25.40;;;;;;;9.11;61.70;100854.83;129930;1299;22597;-75
2023/02/16 12:50:18;;;;;;;43.80;24.00;;;;;;;9.05;61.75;100848.27;129890;1298;25613;-80
2023/02/16 12:54:00;;;;;;;48.10;26.00;;;;;;;8.92;61.48;100853.84;129860;1298;25523;-75
2023/02/16 12:57:11;;;;;;;44.20;24.90;;;;;;;8.80;61.47;100849.34;128889;1306;22563;-75
2023/02/16 13:00:36;;;;;;;41.40;23.60;;;;;;;8.68;61.94;100848.11;129807;1298;24231;-74
2023/02/16 13:03:51;;;;;;;63.90;34.60;;;;;;;8.66;62.30;100846.34;129887;1298;26660;-74
2023/02/16 13:07:07;;;;;;;48.00;28.30;;;;;;;8.56;61.84;100834.69;129802;1295;22564;-74
2023/02/16 13:10:55;;;;;;;46.20;27.00;;;;;;;8.45;61.68;100837.75;129565;1300;22582;-74
2023/02/16 13:14:03;;;;;;;55.30;30.30;;;;;;;8.30;62.50;100835.92;129700;1292;22916;-73
2023/02/16 13:17:09;;;;;;;45.90;25.40;;;;;;;8.23;62.54;100833.67;129804;1294;22640;-74
2023/02/16 13:20:19;;;;;;;47.30;26.30;;;;;;;8.17;62.59;100832.15;129815;1301;22579;-73
2023/02/16 13:23:51;;;;;;;48.50;25.30;;;;;;;8.14;62.98;100830.46;129898;1298;23045;-74
2023/02/16 13:27:10;;;;;;;52.00;27.40;;;;;;;8.14;63.02;100829.02;129880;1294;22687;-73
2023/02/16 13:30:14;;;;;;;49.80;27.20;;;;;;;8.13;63.31;100822.23;129713;1298;22559;-74
2023/02/16 13:33:35;;;;;;;48.10;27.00;;;;;;;8.11;63.42;100823.34;129857;1282;22772;-75
2023/02/16 13:36:42;;;;;;;51.60;28.20;;;;;;;8.06;63.01;100815.90;129912;1298;22556;-73
2023/02/16 13:40:09;;;;;;;51.80;27.50;;;;;;;8.10;63.60;100808.25;129883;1299;25432;-76
2023/02/16 13:43:31;;;;;;;49.30;25.90;;;;;;;8.11;63.31;100804.64;129840;1292;22582;-74
2023/02/16 13:46:40;;;;;;;48.60;27.10;;;;;;;8.07;63.44;100801.59;129794;1298;24250;-74
2023/02/16 13:49:42;;;;;;;44.50;27.20;;;;;;;8.03;63.42;100798.75;129846;1298;25277;-77
2023/02/16 13:52:42;;;;;;;53.10;28.10;;;;;;;8.04;63.75;100801.86;129760;1301;22619;-74
2023/02/16 13:55:43;;;;;;;45.90;25.50;;;;;;;8.09;63.83;100797.02;129797;1298;25619;-73
2023/02/16 13:58:44;;;;;;;;;;;;;;;8.13;63.99;100795.85;129885;1298;24350;-75
2023/02/16 14:01:47;;;;;;;48.90;27.60;;;;;;;8.18;64.10;100793.44;129842;1301;24228;-74
2023/02/16 14:04:50;;;;;;;53.20;28.00;;;;;;;8.25;63.90;100788.63;129792;1298;22566;-74
2023/02/16 14:08:14;;;;;;;51.40;27.40;;;;;;;8.30;63.79;100787.80;129831;1301;22578;-73
2023/02/16 14:11:15;;;;;;;49.50;26.30;;;;;;;8.27;63.65;100792.11;129741;1282;22622;-73
2023/02/16 14:14:32;;;;;;;63.00;30.20;;;;;;;8.22;63.78;100795.19;129848;1298;25362;-75
2023/02/16 14:17:34;;;;;;;54.30;27.60;;;;;;;8.22;64.06;100795.20;129855;1298;25451;-75
2023/02/16 14:20:35;;;;;;;46.10;26.70;;;;;;;8.22;63.95;100788.67;129916;1298;24252;-75
2023/02/16 14:23:35;;;;;;;46.60;27.40;;;;;;;8.20;64.02;100791.86;129902;1299;24410;-75
2023/02/16 14:27:04;;;;;;;54.60;30.00;;;;;;;8.21;64.12;100783.61;129858;1298;22570;-75
2023/02/16 14:30:15;;;;;;;69.80;38.90;;;;;;;8.17;64.01;100782.95;129773;1291;22673;-74
2023/02/16 14:33:22;;;;;;;51.90;28.30;;;;;;;8.18;64.08;100780.95;129818;1298;24297;-76
2023/02/16 14:36:25;;;;;;;47.50;26.80;;;;;;;8.17;64.01;100780.45;129944;1300;22673;-75
2023/02/16 14:39:28;;;;;;;50.60;27.60;;;;;;;8.12;64.13;100784.61;129945;1298;22575;-74
2023/02/16 14:42:32;;;;;;;61.10;30.70;;;;;;;8.07;64.23;100783.65;129946;1294;22554;-77
2023/02/16 14:46:10;;;;;;;65.80;34.60;;;;;;;8.07;64.40;100781.72;129943;1298;24291;-73
2023/02/16 14:49:33;;;;;;;66.60;30.80;;;;;;;8.09;64.36;100781.02;129830;1285;23153;-74
2023/02/16 14:52:40;;;;;;;64.10;33.30;;;;;;;8.08;64.48;100776.95;129769;1298;22586;-74
2023/02/16 14:56:00;;;;;;;54.80;29.20;;;;;;;8.12;64.44;100773.91;129869;1291;22581;-73
2023/02/16 14:59:16;;;;;;;55.50;30.40;;;;;;;8.12;64.28;100768.60;129853;1300;22555;-74
2023/02/16 15:02:54;;;;;;;58.80;30.00;;;;;;;8.12;64.53;100764.52;129837;1298;22558;-73
2023/02/16 15:06:00;;;;;;;46.70;26.90;;;;;;;8.11;64.58;100760.36;129898;1291;22666;-74
2023/02/16 15:09:05;;;;;;;48.60;28.30;;;;;;;8.05;64.53;100758.94;129954;1291;23143;-74
2023/02/16 15:12:23;;;;;;;47.90;27.20;;;;;;;7.96;64.62;100759.71;129956;1298;22592;-74
2023/02/16 15:15:47;;;;;;;51.80;29.80;;;;;;;7.84;64.77;100760.25;129888;1295;22575;-74
2023/02/16 15:18:54;;;;;;;51.50;28.80;;;;;;;7.71;64.83;100757.14;130057;1298;24287;-75
2023/02/16 15:22:20;;;;;;;114.90;49.60;;;;;;;7.59;64.91;100757.09;129836;1297;23411;-73
2023/02/16 15:25:25;;;;;;;64.90;35.40;;;;;;;7.47;64.99;100757.25;129869;1298;22500;-72
2023/02/16 15:28:35;;;;;;;64.40;34.30;;;;;;;7.39;65.21;100757.77;129878;1298;22689;-74
2023/02/16 15:31:37;;;;;;;65.00;35.30;;;;;;;7.32;65.41;100758.78;130067;1298;24254;-75
2023/02/16 15:34:39;;;;;;;59.80;32.90;;;;;;;7.24;65.40;100760.48;129833;1298;22549;-78
2023/02/16 15:37:40;;;;;;;61.60;31.40;;;;;;;7.13;65.59;100756.61;129942;1294;25316;-75
2023/02/16 15:40:41;;;;;;;61.00;30.70;;;;;;;7.02;65.60;100752.45;129846;1298;23391;-75
2023/02/16 15:43:49;;;;;;;56.80;32.10;;;;;;;6.91;65.76;100752.34;129913;1294;22574;-75
2023/02/16 15:46:51;;;;;;;55.10;28.70;;;;;;;6.80;65.81;100753.39;129808;1294;22591;-75
2023/02/16 15:49:53;;;;;;;51.80;27.10;;;;;;;6.70;66.01;100758.60;129752;1297;22569;-75
2023/02/16 15:52:54;;;;;;;49.50;27.70;;;;;;;6.60;65.86;100757.14;129891;1292;22614;-75
2023/02/16 15:55:54;;;;;;;;;;;;;;;6.52;66.02;100760.85;129698;1299;22536;-75
2023/02/16 15:59:12;;;;;;;54.70;27.90;;;;;;;6.40;66.09;100760.59;129901;1298;25827;-75
2023/02/16 16:02:19;;;;;;;61.40;31.70;;;;;;;6.27;66.32;100750.20;129983;1298;22681;-75
2023/02/16 16:05:24;;;;;;;62.60;31.40;;;;;;;6.16;66.57;100753.02;129895;1298;22540;-74
2023/02/16 16:08:27;;;;;;;57.00;30.80;;;;;;;6.02;66.66;100759.04;129995;1298;27397;-75
2023/02/16 16:11:28;;;;;;;56.20;31.50;;;;;;;5.90;67.02;100754.35;129621;1298;22569;-74
2023/02/16 16:14:33;;;;;;;59.50;32.50;;;;;;;5.78;67.22;100751.53;129911;1298;22564;-75
2023/02/16 16:17:38;;;;;;;60.50;32.50;;;;;;;5.65;67.42;100751.05;129910;1298;22722;-75
2023/02/16 16:20:45;;;;;;;57.40;31.50;;;;;;;5.54;67.30;100746.06;129822;1298;22639;-75
2023/02/16 16:24:17;;;;;;;56.90;31.90;;;;;;;5.46;67.47;100747.62;129919;1298;22639;-75
2023/02/16 16:27:28;;;;;;;58.90;32.60;;;;;;;5.31;67.56;100748.69;129922;1298;27773;-75
2023/02/16 16:30:32;;;;;;;67.40;31.60;;;;;;;5.23;68.27;100756.70;130064;1298;22589;-76
2023/02/16 16:33:58;;;;;;;57.60;30.60;;;;;;;5.18;67.86;100754.29;129889;1299;23911;-76
2023/02/16 16:37:02;;;;;;;62.50;33.30;;;;;;;5.09;68.08;100758.85;129831;1298;22802;-76
2023/02/16 16:40:21;;;;;;;69.10;35.40;;;;;;;5.01;68.59;100757.86;129791;1294;22732;-76
2023/02/16 16:43:34;;;;;;;67.10;36.50;;;;;;;4.97;68.45;100756.42;129959;1298;25393;-76
2023/02/16 16:46:34;;;;;;;71.40;36.40;;;;;;;4.91;68.57;100756.45;129923;1301;22563;-76
2023/02/16 16:49:35;;;;;;;71.30;36.60;;;;;;;4.84;68.63;100755.05;130022;1294;22579;-76
2023/02/16 16:52:42;;;;;;;60.30;33.50;;;;;;;4.79;69.02;100756.82;129891;1298;22578;-75
2023/02/16 16:55:42;;;;;;;67.30;34.30;;;;;;;4.72;68.82;100754.22;130099;1297;24743;-75
2023/02/16 16:58:48;;;;;;;64.70;32.70;;;;;;;4.65;69.31;100756.33;129901;1298;23620;-76
2023/02/16 17:01:49;;;;;;;65.60;34.40;;;;;;;4.59;69.27;100761.87;129968;1301;22580;-75
2023/02/16 17:04:49;;;;;;;64.30;32.80;;;;;;;4.54;69.34;100767.30;129965;1298;23761;-74
2023/02/16 17:07:50;;;;;;;69.40;35.40;;;;;;;4.47;69.51;100765.52;129872;1298;22685;-72
2023/02/16 17:10:51;;;;;;;;;;;;;;;4.41;69.50;100766.67;129990;1298;22748;-74
2023/02/16 17:13:53;;;;;;;69.10;33.00;;;;;;;4.29;69.56;100765.06;129953;1298;24297;-78
2023/02/16 17:16:55;;;;;;;68.30;34.40;;;;;;;4.16;69.83;100769.89;129985;1291;22801;-78
2023/02/16 17:19:55;;;;;;;67.60;34.30;;;;;;;4.10;70.07;100768.20;129816;1298;22682;-77
2023/02/16 17:23:03;;;;;;;69.90;35.60;;;;;;;4.05;70.13;100770.98;129947;1298;22562;-72
2023/02/16 17:34:17;;;;;;;111.60;53.60;;;;;;;3.90;70.33;100782.69;129039;1305;558753;-73
2023/02/16 17:37:18;;;;;;;113.40;56.80;;;;;;;3.85;70.19;100785.34;129513;1301;22563;-72
2023/02/16 17:40:21;;;;;;;88.10;45.80;;;;;;;3.83;70.38;100780.09;129577;1305;23092;-71
2023/02/16 17:43:27;;;;;;;75.30;35.50;;;;;;;3.78;70.24;100777.09;129685;1308;24839;-72
2023/02/16 17:46:29;;;;;;;75.20;39.00;;;;;;;3.75;70.84;100782.34;129578;1302;120791;-72
2023/02/16 17:49:30;;;;;;;103.80;48.30;;;;;;;3.70;70.52;100780.42;129763;1302;23392;-74
2023/02/16 17:52:31;;;;;;;93.30;44.60;;;;;;;3.64;70.61;100777.18;129799;1295;22573;-73
2023/02/16 17:55:33;;;;;;;70.30;40.10;;;;;;;3.58;70.67;100778.12;129802;1301;22564;-73
2023/02/16 17:58:34;;;;;;;121.90;59.50;;;;;;;3.51;70.79;100770.00;129860;1298;22564;-73
2023/02/16 18:01:36;;;;;;;85.40;42.00;;;;;;;3.44;70.87;100773.45;129798;1301;22615;-74
2023/02/16 18:04:39;;;;;;;75.40;39.90;;;;;;;3.39;70.89;100777.82;129835;1302;22509;-72
2023/02/16 18:07:40;;;;;;;92.20;45.00;;;;;;;3.33;71.18;100777.89;129756;1304;24375;-72
2023/02/16 18:10:44;;;;;;;81.90;43.40;;;;;;;3.26;71.36;100780.27;129761;1299;22566;-73
2023/02/16 18:13:45;;;;;;;83.50;42.90;;;;;;;3.20;71.25;100782.45;129771;1302;24281;-73
2023/02/16 18:16:51;;;;;;;84.80;42.60;;;;;;;3.15;71.54;100783.31;129720;1298;25332;-78
2023/02/16 18:19:51;;;;;;;86.50;45.80;;;;;;;3.11;71.61;100782.16;129424;1302;23150;-77
2023/02/16 18:22:52;;;;;;;78.20;39.10;;;;;;;3.08;71.53;100780.27;129613;1302;26574;-77
2023/02/16 18:25:53;;;;;;;81.20;41.60;;;;;;;3.04;71.61;100778.23;129509;1302;25284;-76
2023/02/16 18:28:54;;;;;;;122.10;55.90;;;;;;;3.00;71.38;100777.83;129670;1302;22717;-76
2023/02/16 18:31:55;;;;;;;106.60;51.80;;;;;;;2.99;72.07;100775.98;129482;1301;23915;-77
2023/02/16 18:34:56;;;;;;;111.60;53.00;;;;;;;2.99;71.82;100775.30;129612;1301;26634;-77
2023/02/16 18:37:57;;;;;;;130.90;59.80;;;;;;;2.99;72.17;100777.02;129438;1301;24275;-76
2023/02/16 18:40:57;;;;;;;116.70;56.50;;;;;;;2.98;71.98;100779.72;129619;1302;22600;-77
2023/02/16 18:43:58;;;;;;;123.10;57.60;;;;;;;2.95;72.31;100779.06;129618;1301;24888;-77
2023/02/16 18:46:59;;;;;;;93.20;45.10;;;;;;;2.91;72.21;100779.10;129831;1295;22628;-77
2023/02/16 18:50:00;;;;;;;99.70;48.70;;;;;;;2.88;72.19;100778.64;129570;1302;22806;-78
2023/02/16 18:53:00;;;;;;;98.90;46.40;;;;;;;2.86;72.36;100778.60;129694;1298;22579;-78
2023/02/16 18:56:01;;;;;;;105.10;51.50;;;;;;;2.82;72.39;100778.67;129575;1301;26601;-77
2023/02/16 18:59:01;;;;;;;103.00;50.70;;;;;;;2.80;72.72;100785.81;129646;1296;22798;-77
2023/02/16 19:02:02;;;;;;;121.70;53.10;;;;;;;2.77;72.58;100784.05;129491;1298;22563;-77
2023/02/16 19:05:03;;;;;;;;;;;;;;;2.74;72.59;100778.84;129515;1297;22596;-75
2023/02/16 19:08:04;;;;;;;118.90;53.70;;;;;;;2.70;72.71;100780.52;129408;1301;25418;-76
2023/02/16 19:11:04;;;;;;;116.80;52.60;;;;;;;2.66;72.95;100786.70;129802;1301;22572;-77
2023/02/16 19:14:05;;;;;;;103.40;48.20;;;;;;;2.64;73.10;100787.19;129701;1302;25259;-78
2023/02/16 19:17:05;;;;;;;109.10;47.90;;;;;;;2.63;72.90;100785.83;129757;1301;23264;-78
2023/02/16 19:20:10;;;;;;;105.60;49.40;;;;;;;2.62;73.25;100785.02;129665;1302;25441;-78
2023/02/16 19:23:11;;;;;;;110.50;48.50;;;;;;;2.62;73.07;100786.82;129696;1296;22558;-78
2023/02/16 19:26:14;;;;;;;111.60;50.20;;;;;;;2.61;73.34;100787.58;129441;1296;22594;-78
2023/02/16 19:29:18;;;;;;;107.00;50.20;;;;;;;2.59;73.04;100786.28;129569;1301;24396;-78
2023/02/16 19:32:19;;;;;;;100.10;48.40;;;;;;;2.55;73.11;100787.75;129546;1302;22552;-78
2023/02/16 19:35:20;;;;;;;212.30;85.30;;;;;;;2.52;73.04;100791.33;129706;1301;25547;-78
2023/02/16 19:38:20;;;;;;;275.80;107.70;;;;;;;2.50;73.28;100790.88;129562;1295;24923;-78
2023/02/16 19:41:24;;;;;;;;;;;;;;;2.47;73.23;100784.96;129745;1302;22564;-78
2023/02/16 19:44:24;;;;;;;118.20;49.90;;;;;;;2.44;73.15;100786.41;129679;1301;25425;-77
2023/02/16 19:47:25;;;;;;;131.90;60.20;;;;;;;2.42;73.29;100781.46;129380;1302;22956;-78
2023/02/16 19:50:25;;;;;;;98.00;46.50;;;;;;;2.40;73.31;100774.42;129556;1302;22672;-77
2023/02/16 19:53:28;;;;;;;116.70;56.20;;;;;;;2.38;73.34;100768.59;129788;1301;22573;-78
2023/02/16 19:56:28;;;;;;;101.90;50.10;;;;;;;2.37;73.09;100767.48;129623;1302;23950;-79
2023/02/16 19:59:31;;;;;;;118.10;55.20;;;;;;;2.35;73.03;100767.95;129766;1302;22615;-77
2023/02/16 20:02:31;;;;;;;124.60;59.90;;;;;;;2.32;73.23;100770.89;129542;1302;22665;-77
2023/02/16 20:05:32;;;;;;;117.00;56.50;;;;;;;2.28;73.35;100775.17;129527;1301;22555;-77
2023/02/16 20:08:35;;;;;;;138.30;65.00;;;;;;;2.24;73.12;100774.53;129536;1301;22573;-77
2023/02/16 20:11:40;;;;;;;195.40;101.60;;;;;;;2.20;73.25;100774.42;129722;1302;22598;-78
2023/02/16 20:14:40;;;;;;;156.20;75.20;;;;;;;2.15;73.33;100775.81;129524;1302;22565;-77
2023/02/16 20:17:41;;;;;;;212.80;96.00;;;;;;;2.09;73.08;100776.20;129686;1301;24352;-78
2023/02/16 20:20:42;;;;;;;160.10;72.30;;;;;;;2.05;73.38;100772.79;129576;1298;22560;-78
2023/02/16 20:23:43;;;;;;;108.50;51.30;;;;;;;2.04;73.27;100774.45;129801;1301;24267;-78
2023/02/16 20:26:45;;;;;;;101.90;49.20;;;;;;;2.00;73.34;100769.45;129666;1302;25406;-77
2023/02/16 20:29:46;;;;;;;86.50;42.10;;;;;;;1.96;73.55;100769.15;129565;1302;25341;-78
2023/02/16 20:32:47;;;;;;;78.10;38.30;;;;;;;1.92;73.58;100769.08;129618;1302;22644;-74
2023/02/16 20:35:48;;;;;;;73.80;36.50;;;;;;;1.87;73.66;100768.48;129613;1305;22682;-76
2023/02/16 20:38:49;;;;;;;86.50;42.70;;;;;;;1.85;73.80;100772.33;129673;1301;25402;-78
2023/02/16 20:41:49;;;;;;;86.10;44.10;;;;;;;1.81;74.03;100776.23;129564;1305;22567;-76
2023/02/16 20:44:50;;;;;;;121.90;63.20;;;;;;;1.77;73.95;100777.32;129555;1301;22585;-75
2023/02/16 20:47:51;;;;;;;139.00;63.40;;;;;;;1.72;73.68;100771.00;129469;1301;22582;-77
2023/02/16 20:50:56;;;;;;;157.10;69.40;;;;;;;1.68;74.19;100772.96;129426;1301;22562;-76
2023/02/16 20:53:59;;;;;;;152.60;65.50;;;;;;;1.63;74.04;100769.63;129454;1302;22578;-77
2023/02/16 20:56:59;;;;;;;135.50;57.50;;;;;;;1.59;74.27;100772.14;133725;1301;22441;-77
2023/02/16 21:00:09;;;;;;;138.60;61.00;;;;;;;1.54;74.32;100770.83;133751;1301;22312;-77
2023/02/16 21:03:11;;;;;;;127.10;55.40;;;;;;;1.53;74.28;100772.33;133691;1302;23339;-77
2023/02/16 21:06:12;;;;;;;134.70;61.30;;;;;;;1.53;74.74;100769.53;133679;1301;22446;-77
2023/02/16 21:09:14;;;;;;;137.30;61.40;;;;;;;1.53;74.40;100765.88;133673;1301;22443;-78
2023/02/16 21:12:14;;;;;;;143.80;62.00;;;;;;;1.53;74.57;100768.65;133720;1301;22399;-77
2023/02/16 21:15:15;;;;;;;129.10;58.00;;;;;;;1.54;74.59;100768.42;133719;1301;22578;-77
2023/02/16 21:18:16;;;;;;;113.60;51.10;;;;;;;1.56;74.65;100763.76;133733;1289;22445;-78
2023/02/16 21:21:16;;;;;;;103.30;47.00;;;;;;;1.59;74.79;100762.16;133719;1301;24803;-77
2023/02/16 21:24:17;;;;;;;123.40;52.80;;;;;;;1.62;74.69;100764.46;133738;1301;22432;-77
2023/02/16 21:27:18;;;;;;;112.90;51.30;;;;;;;1.65;74.82;100763.05;133720;1301;23240;-77
2023/02/16 21:30:18;;;;;;;126.90;57.20;;;;;;;1.66;74.60;100764.54;133758;1301;22388;-77
2023/02/16 21:33:19;;;;;;;116.50;52.00;;;;;;;1.69;74.93;100760.70;133740;1301;22499;-77